Vance, SC (29163)

11:24 AM EST on February 10, 2016 (GMT -0500)
Santee State Park-K9YS | | Change Station
CLOSE
Current Station
Personal Weather Station
Location: Santee, SC
Elevation: 135 ft
Nearby Weather Stations
Active Advisory: Lake Wind Advisory Active Notice: Public Information Statement

Elev 135 ft 33.52 °N, 80.50 °W | Updated 29 minutes ago

Partly Cloudy
Partly Cloudy
34.2 °F
Feels Like 34 °F
N
1.0
Wind Variable Wind from WNW
Gusts 8.0 mph

Today
High -- | Low -- °F
--% Chance of Precip.
Yesterday
High -- | Low -- °F
Precip. -- in
Pressure 30.04 in
Visibility 10.0 miles
Clouds Scattered Clouds 4400 ft
Windchill 34 °F
Dew Point 22 °F
Humidity 61%
Rainfall 0.00 in
Snow Depth Not available.
7:11 AM 6:01 PM
Waxing Crescent, 6% visible
METAR KMNI 101615Z AUTO 24011G18KT 220V290 10SM SCT044 00/M10 A3004 RMK AO2
Pressure 30.04 in
Visibility 10.0 miles
Clouds Scattered Clouds 4400 ft
Windchill 34 °F
Dew Point 22 °F
Humidity 61%
Rainfall 0.00 in
Snow Depth Not available.
7:11 AM 6:01 PM
Waxing Crescent, 6% visible
METAR KMNI 101615Z AUTO 24011G18KT 220V290 10SM SCT044 00/M10 A3004 RMK AO2

10-Day Weather Forecast

Almanac

Astronomy

Feb. 10, 2016 Rise Set
Actual Time
Civil Twilight
Nautical Twilight
Astronomical Twilight
Moon
Length of Visible Light
Length of Day
Tomorrow will be .
, % of the Moon is Illuminated

Today's Extremes

State Highs State Lows

Community

WunderPhotos

Upload Photos

1,891,881 photos uploaded!

WunderBlog® & News

Nearby

Air Quality

  Air Quality AQ Index Pollutant
Not available.

Snow Depth

Station Depth Elevation

Earthquake Activity

City Distance Mag. Time & Date
Minimum magnitude displayed is 2.5.

Coastal Water Temperatures

Place Temperature

Stations

Nearby Weather Stations

Station Location Temp. Windchill Dew Point Humidity Wind Precip. Elev Updated Type
                   

Watches & Warnings

Lake Wind Advisory
Issued: 3:47 AM EST Feb. 10, 2016 – National Weather Service

... Lake Wind Advisory remains in effect until 11 PM EST this
evening...

* timing... through this evening.

* Winds... west 20 to 30 knots.

* Impacts... strong winds and rough chop will create hazardous
conditions for small craft and personal watercraft.

Precautionary/preparedness actions...

A lake Wind Advisory indicates that winds will cause rough chop
on area lakes. Small boats will be especially prone to capsizing.